Time;durP1;ratioP1;P1;durP2;ratioP2;P2;SDS_P1;SDS_P2;PMS_P1;PMS_P2;Temp;Humidity;BMP_temperature;BMP_pressure;BME280_temperature;BME280_humidity;BME280_pressure;Samples;Min_cycle;Max_cycle;Signal;HPM_P1;HPM_P2
2021/08/25 00:02:11;;;;;;;2.30;1.93;;;;;;;11.41;95.43;102060.31;5074833;28;20444;-71
2021/08/25 00:04:38;;;;;;;1.57;1.20;;;;;;;11.40;96.12;102058.69;5073584;28;20990;-72
2021/08/25 00:07:06;;;;;;;4.27;1.53;;;;;;;11.34;95.71;102058.69;5074757;28;20448;-72
2021/08/25 00:09:33;;;;;;;3.27;1.27;;;;;;;11.43;94.60;102056.28;5074333;28;20943;-71
2021/08/25 00:12:00;;;;;;;2.10;1.17;;;;;;;11.41;94.47;102057.59;5074095;28;20935;-71
2021/08/25 00:14:26;;;;;;;1.77;1.20;;;;;;;11.40;95.04;102056.00;5073691;28;20465;-71
2021/08/25 00:16:52;;;;;;;2.27;1.30;;;;;;;11.36;94.41;102051.09;5074160;28;20958;-70
2021/08/25 00:19:20;;;;;;;1.37;1.10;;;;;;;11.27;94.99;102041.88;5074382;28;20440;-71
2021/08/25 00:21:47;;;;;;;3.73;1.10;;;;;;;11.35;94.64;102044.03;5074107;28;20441;-71
2021/08/25 00:24:13;;;;;;;2.53;1.23;;;;;;;11.22;94.97;102039.16;5073495;28;20461;-71
2021/08/25 00:26:40;;;;;;;1.50;1.27;;;;;;;11.19;93.44;102034.25;5074333;28;20456;-71
2021/08/25 00:29:06;;;;;;;3.07;1.43;;;;;;;11.17;91.61;102035.63;5073975;28;20941;-71
2021/08/25 00:31:32;;;;;;;1.17;0.93;;;;;;;11.08;91.51;102032.63;5074243;28;20446;-71
2021/08/25 00:33:59;;;;;;;1.83;1.10;;;;;;;10.92;91.95;102028.25;5073315;28;20461;-71
2021/08/25 00:36:27;;;;;;;2.53;1.70;;;;;;;10.90;92.59;102022.28;5074211;28;20449;-71
2021/08/25 00:38:54;;;;;;;2.20;1.07;;;;;;;10.87;92.09;102020.91;5073931;28;20487;-71
2021/08/25 00:41:20;;;;;;;2.83;1.73;;;;;;;10.79;92.55;102013.31;5073634;28;20441;-72
2021/08/25 00:43:47;;;;;;;3.33;1.40;;;;;;;10.78;94.72;102017.91;5072984;28;20514;-72
2021/08/25 00:46:13;;;;;;;1.40;1.00;;;;;;;10.82;94.78;102015.47;5074003;28;20479;-72
2021/08/25 00:48:41;;;;;;;7.27;1.30;;;;;;;10.84;94.90;102007.88;5073546;28;20953;-72
2021/08/25 00:51:08;;;;;;;2.40;1.03;;;;;;;10.83;94.52;102007.06;5073937;28;20445;-71
2021/08/25 00:53:35;;;;;;;1.17;0.93;;;;;;;10.81;94.49;102011.97;5072861;28;20445;-72
2021/08/25 00:56:02;;;;;;;5.93;1.07;;;;;;;10.81;95.18;102011.97;5073666;28;20445;-71
2021/08/25 00:58:28;;;;;;;2.30;1.23;;;;;;;10.64;95.48;102008.66;5072882;28;20511;-72
2021/08/25 01:01:02;;;;;;;1.40;0.83;;;;;;;10.65;95.80;102007.56;5080230;28;20442;-72
2021/08/25 01:03:33;;;;;;;1.40;1.00;;;;;;;10.65;95.59;102004.88;5073706;28;20438;-72
2021/08/25 01:05:59;;;;;;;1.07;0.80;;;;;;;10.69;95.45;102005.97;5073183;28;20434;-72
2021/08/25 01:08:27;;;;;;;1.63;1.00;;;;;;;10.66;95.76;101998.34;5073717;28;20448;-71
2021/08/25 01:11:07;;;;;;;1.80;1.07;;;;;;;10.76;94.74;101995.69;5073623;28;20441;-73
2021/08/25 01:13:34;;;;;;;2.63;1.20;;;;;;;10.73;93.74;101993.50;5073504;28;20436;-71
2021/08/25 01:16:00;;;;;;;9.30;1.70;;;;;;;10.65;94.48;101990.50;5072626;28;20449;-70
2021/08/25 01:18:27;;;;;;;1.50;1.00;;;;;;;10.67;94.71;101991.03;5073431;28;20489;-70
2021/08/25 01:20:55;;;;;;;1.53;1.43;;;;;;;10.62;94.87;101986.41;5073417;28;20445;-71
2021/08/25 01:23:23;;;;;;;2.23;1.23;;;;;;;10.49;93.73;101989.63;5072211;28;20433;-70
2021/08/25 01:25:56;;;;;;;2.07;1.30;;;;;;;10.41;92.18;101995.56;5072790;28;20963;-70
2021/08/25 01:28:25;;;;;;;3.67;2.17;;;;;;;10.24;92.03;101985.75;5073400;28;20430;-71
2021/08/25 01:30:54;;;;;;;1.50;1.30;;;;;;;10.18;92.11;101981.38;5073022;28;20434;-71
2021/08/25 01:33:22;;;;;;;3.50;1.80;;;;;;;9.98;92.93;101975.84;5072163;28;20962;-70
2021/08/25 01:35:48;;;;;;;1.20;1.07;;;;;;;10.08;92.36;101981.28;5073117;28;20442;-70
2021/08/25 01:38:23;;;;;;;2.37;1.20;;;;;;;10.02;93.26;101969.63;5072883;28;20878;-70
2021/08/25 01:40:50;;;;;;;3.43;1.53;;;;;;;9.96;95.42;101973.41;5072861;28;20430;-70
2021/08/25 01:43:16;;;;;;;1.40;1.10;;;;;;;10.03;95.77;101970.44;5072383;28;20445;-70
2021/08/25 01:45:43;;;;;;;1.90;1.40;;;;;;;9.95;96.75;101979.06;5072493;28;20484;-70
2021/08/25 01:48:10;;;;;;;1.33;0.90;;;;;;;10.02;96.05;101971.53;5073102;28;20460;-70
2021/08/25 01:50:37;;;;;;;3.63;1.67;;;;;;;10.04;96.00;101972.88;5072586;28;21004;-70
2021/08/25 01:53:03;;;;;;;8.03;1.70;;;;;;;10.10;95.96;101971.84;5072672;28;20498;-70
2021/08/25 01:55:30;;;;;;;3.40;1.80;;;;;;;10.03;96.28;101970.44;5072638;28;20461;-70
2021/08/25 01:57:56;;;;;;;3.17;1.33;;;;;;;10.10;95.68;101962.91;5072648;28;20882;-70
2021/08/25 02:00:23;;;;;;;1.53;0.87;;;;;;;10.10;95.38;101962.91;5072951;28;20441;-70
2021/08/25 02:02:49;;;;;;;1.10;1.00;;;;;;;10.07;95.57;101958.03;5072714;28;20452;-70
2021/08/25 02:05:17;;;;;;;3.57;1.40;;;;;;;10.06;95.71;101948.28;5072348;28;20479;-70
2021/08/25 02:07:43;;;;;;;5.90;1.83;;;;;;;10.06;95.20;101959.09;5071813;28;20445;-70
2021/08/25 02:10:10;;;;;;;2.37;1.23;;;;;;;10.01;94.61;101956.38;5072939;28;20449;-70
2021/08/25 02:12:37;;;;;;;2.60;1.13;;;;;;;9.98;93.61;101957.72;5072440;28;20437;-70
2021/08/25 02:15:04;;;;;;;1.30;1.20;;;;;;;9.75;92.75;101950.81;5072917;28;20461;-70
2021/08/25 02:17:30;;;;;;;1.67;1.40;;;;;;;9.86;92.61;101947.06;5071341;28;20429;-70
2021/08/25 02:19:56;;;;;;;3.43;1.07;;;;;;;9.67;92.23;101943.19;5072859;28;20445;-70
2021/08/25 02:22:24;;;;;;;1.70;0.97;;;;;;;9.66;91.95;101936.16;5072988;28;20441;-71
2021/08/25 02:24:51;;;;;;;3.40;1.13;;;;;;;9.68;92.27;101938.59;5071559;28;20468;-70
2021/08/25 02:27:17;;;;;;;2.13;1.93;;;;;;;9.75;92.35;101934.59;5072549;28;20446;-71
2021/08/25 02:29:43;;;;;;;2.33;1.13;;;;;;;9.77;93.23;101916.19;5072803;28;20441;-71
2021/08/25 02:32:10;;;;;;;1.63;1.13;;;;;;;9.85;94.12;101917.59;5072769;28;20447;-71
2021/08/25 02:34:36;;;;;;;3.03;1.30;;;;;;;9.73;95.61;101920.50;5073597;28;20883;-71
2021/08/25 02:37:03;;;;;;;1.23;0.80;;;;;;;9.68;96.00;101912.34;5075675;28;20445;-71
2021/08/25 02:39:31;;;;;;;2.93;1.97;;;;;;;9.69;95.96;101903.16;5076348;28;20505;-71
2021/08/25 02:41:57;;;;;;;2.70;2.00;;;;;;;9.75;95.82;101912.13;5076119;28;20448;-71
2021/08/25 02:44:23;;;;;;;2.07;1.47;;;;;;;9.77;96.03;101902.66;5075487;28;20473;-71
2021/08/25 02:46:50;;;;;;;3.37;1.33;;;;;;;9.74;95.75;101902.34;5075959;28;20449;-71
2021/08/25 02:49:16;;;;;;;5.13;2.30;;;;;;;9.78;95.31;101903.47;5076259;28;20449;-71
2021/08/25 02:51:43;;;;;;;2.73;0.97;;;;;;;9.77;95.20;101902.66;5076194;28;20445;-71
2021/08/25 02:54:09;;;;;;;2.00;1.47;;;;;;;9.67;95.62;101894.50;5075232;28;20461;-71
2021/08/25 02:56:37;;;;;;;2.50;1.20;;;;;;;9.66;95.41;101892.88;5082466;28;20413;-71
2021/08/25 02:59:03;;;;;;;1.83;1.30;;;;;;;9.63;95.75;101887.97;5076019;28;20480;-71
2021/08/25 03:01:30;;;;;;;7.57;1.70;;;;;;;9.72;95.25;101891.81;5075988;28;20441;-71
2021/08/25 03:03:56;;;;;;;1.13;0.97;;;;;;;9.79;93.60;101886.19;5075075;28;20475;-71
2021/08/25 03:06:23;;;;;;;1.13;1.03;;;;;;;9.70;92.71;101893.97;5075964;28;20463;-71
2021/08/25 03:08:49;;;;;;;1.97;1.20;;;;;;;9.50;91.01;101893.84;5075899;28;20436;-71
2021/08/25 03:11:15;;;;;;;2.30;1.40;;;;;;;9.39;91.58;101894.88;5075829;28;20498;-71
2021/08/25 03:13:43;;;;;;;1.53;1.30;;;;;;;9.26;91.27;101880.72;5074546;28;20870;-71
2021/08/25 03:16:10;;;;;;;4.13;1.60;;;;;;;9.21;92.08;101882.56;5075754;28;20441;-71
2021/08/25 03:18:36;;;;;;;3.00;1.57;;;;;;;9.19;91.99;101882.03;5075613;28;20488;-71
2021/08/25 03:21:03;;;;;;;2.10;1.13;;;;;;;9.19;92.29;101877.41;5075617;28;20441;-71
2021/08/25 03:23:29;;;;;;;2.93;1.73;;;;;;;9.15;93.74;101872.78;5074725;28;20454;-71
2021/08/25 03:25:56;;;;;;;1.67;1.00;;;;;;;9.26;93.84;101864.50;5075551;28;20445;-71
2021/08/25 03:28:22;;;;;;;1.33;1.13;;;;;;;9.30;94.39;101871.03;5075493;28;20848;-71
2021/08/25 03:30:56;;;;;;;7.83;1.60;;;;;;;9.38;94.25;101863.47;5075426;28;20452;-71
2021/08/25 03:33:22;;;;;;;1.70;0.83;;;;;;;9.46;94.26;101854.88;5074450;28;20416;-70
2021/08/25 03:35:49;;;;;;;2.70;1.60;;;;;;;9.40;94.19;101858.63;5075261;28;20456;-70
2021/08/25 03:38:15;;;;;;;2.73;1.80;;;;;;;9.43;94.19;101858.09;5074773;28;21018;-70
2021/08/25 03:40:41;;;;;;;2.53;2.30;;;;;;;9.40;93.30;101850.53;5074917;28;20809;-70
2021/08/25 03:43:08;;;;;;;4.37;1.93;;;;;;;9.38;92.99;101848.06;5075263;28;20450;-70
2021/08/25 03:45:35;;;;;;;6.43;2.10;;;;;;;9.34;93.72;101846.97;5073448;28;20469;-70
2021/08/25 03:48:03;;;;;;;3.13;1.60;;;;;;;9.43;93.37;101844.56;5075084;28;20464;-70
2021/08/25 03:50:29;;;;;;;5.27;2.10;;;;;;;9.34;93.12;101847.81;5075130;28;20433;-70
2021/08/25 03:52:55;;;;;;;6.70;2.90;;;;;;;9.17;93.92;101847.16;5075072;28;20445;-70
2021/08/25 03:55:22;;;;;;;4.73;1.53;;;;;;;9.26;94.04;101845.59;5074067;28;20465;-70
2021/08/25 03:57:49;;;;;;;4.00;2.00;;;;;;;9.28;93.88;101848.81;5074916;28;20480;-69
2021/08/25 04:00:16;;;;;;;6.60;2.97;;;;;;;9.27;92.84;101849.09;5074559;28;20838;-69
2021/08/25 04:02:42;;;;;;;8.00;3.57;;;;;;;9.06;91.44;101840.03;5074861;28;20445;-69
2021/08/25 04:05:11;;;;;;;4.33;3.17;;;;;;;8.94;90.98;101844.78;5074117;28;20479;-70
2021/08/25 04:07:37;;;;;;;8.30;3.50;;;;;;;8.87;90.66;101845.03;5074352;28;20445;-70
2021/08/25 04:10:04;;;;;;;12.03;3.93;;;;;;;8.92;91.00;101839.66;5074436;28;20442;-70
2021/08/25 04:12:31;;;;;;;10.73;4.00;;;;;;;8.82;90.67;101843.09;5075956;28;20465;-70
2021/08/25 04:14:57;;;;;;;7.63;4.00;;;;;;;8.71;91.75;101837.88;5073376;28;20457;-70
2021/08/25 04:17:24;;;;;;;7.60;3.47;;;;;;;8.67;91.76;101837.56;5074468;28;20438;-70
2021/08/25 04:19:50;;;;;;;5.20;3.00;;;;;;;8.76;93.51;101836.00;5074431;28;20486;-70
2021/08/25 04:22:18;;;;;;;7.83;3.47;;;;;;;8.91;94.08;101834.53;5074509;28;20441;-70
2021/08/25 04:24:44;;;;;;;6.63;2.57;;;;;;;8.94;94.00;101836.69;5073288;28;21037;-70
2021/08/25 04:27:11;;;;;;;2.77;1.50;;;;;;;9.01;93.97;101837.28;5074208;28;20441;-70
2021/08/25 04:29:37;;;;;;;3.43;1.93;;;;;;;9.11;94.07;101831.94;5074280;28;20442;-70
2021/08/25 04:32:04;;;;;;;3.40;1.50;;;;;;;9.12;94.28;101832.75;5074311;28;20441;-70
2021/08/25 04:34:31;;;;;;;2.87;1.77;;;;;;;9.00;94.59;101836.47;5073625;28;20461;-70
2021/08/25 04:36:57;;;;;;;5.60;2.23;;;;;;;8.85;95.54;101828.25;5073816;28;20737;-70
2021/08/25 04:39:25;;;;;;;2.93;1.20;;;;;;;8.91;95.92;101831.81;5074041;28;20484;-70
2021/08/25 04:41:51;;;;;;;9.77;5.33;;;;;;;8.94;96.12;101825.88;5074001;28;20441;-70
2021/08/25 04:44:18;;;;;;;13.60;6.43;;;;;;;8.89;97.15;101825.84;5073484;28;20496;-70
2021/08/25 04:46:44;;;;;;;7.60;4.17;;;;;;;8.99;96.91;101823.25;5073413;28;20449;-70
2021/08/25 04:49:10;;;;;;;9.83;5.00;;;;;;;8.90;97.77;101814.81;5077011;28;20441;-70
2021/08/25 04:51:37;;;;;;;6.83;3.30;;;;;;;8.94;98.23;101817.78;5076910;28;20467;-71
2021/08/25 04:54:03;;;;;;;7.03;4.17;;;;;;;9.03;98.08;101808.09;5073624;28;20457;-71
2021/08/25 04:56:31;;;;;;;5.90;3.53;;;;;;;9.33;96.73;101812.88;5072788;28;20445;-70
2021/08/25 04:58:57;;;;;;;6.07;3.90;;;;;;;9.34;94.03;101807.25;5073382;28;20526;-72
2021/08/25 05:01:24;;;;;;;3.57;2.43;;;;;;;9.37;94.09;101810.47;5073746;28;20438;-73
2021/08/25 05:03:50;;;;;;;10.03;4.90;;;;;;;9.42;94.88;101799.69;5073618;28;20474;-68
2021/08/25 05:06:18;;;;;;;7.20;3.90;;;;;;;9.22;94.76;101795.00;5072419;28;20957;-69
2021/08/25 05:08:45;;;;;;;4.87;2.73;;;;;;;9.25;95.46;101784.47;5073646;28;20491;-69
2021/08/25 05:11:11;;;;;;;7.40;3.53;;;;;;;9.32;95.78;101785.03;5073723;28;20465;-69
2021/08/25 05:13:41;;;;;;;4.87;2.97;;;;;;;9.43;95.28;101780.50;5073523;28;20437;-68
2021/08/25 05:16:10;;;;;;;8.10;3.67;;;;;;;9.57;96.88;101775.44;5072601;28;20468;-69
2021/08/25 05:18:37;;;;;;;7.27;3.40;;;;;;;9.85;96.42;101774.97;5073334;28;20466;-69
2021/08/25 05:21:03;;;;;;;7.03;3.10;;;;;;;10.19;96.91;101774.50;5073482;28;20441;-69
2021/08/25 05:23:30;;;;;;;7.93;3.87;;;;;;;10.47;97.00;101780.50;5073345;28;20539;-67
2021/08/25 05:25:56;;;;;;;4.80;2.47;;;;;;;10.67;97.22;101777.81;5072523;28;20446;-69
2021/08/25 05:28:24;;;;;;;4.90;2.90;;;;;;;10.76;98.02;101770.75;5073239;28;20449;-69
2021/08/25 05:30:52;;;;;;;7.03;2.63;;;;;;;10.92;97.50;101768.81;5072962;28;20922;-69
2021/08/25 05:33:18;;;;;;;3.17;2.50;;;;;;;11.10;97.27;101770.13;5073317;28;20445;-69
2021/08/25 05:35:46;;;;;;;3.40;2.73;;;;;;;11.35;96.88;101771.97;5071932;28;20812;-69
2021/08/25 05:38:12;;;;;;;5.30;1.87;;;;;;;11.53;96.56;101762.41;5073228;28;20534;-69
2021/08/25 05:40:38;;;;;;;4.77;2.30;;;;;;;11.72;96.25;101757.13;5073049;28;20477;-69
2021/08/25 05:43:05;;;;;;;4.60;2.67;;;;;;;11.84;95.59;101763.88;5072401;28;20441;-69
2021/08/25 05:45:31;;;;;;;4.70;1.90;;;;;;;12.07;95.61;101764.28;5072060;28;20940;-69
2021/08/25 05:47:59;;;;;;;3.57;1.50;;;;;;;12.30;95.61;101766.28;5072974;28;20442;-70
2021/08/25 05:50:26;;;;;;;2.53;1.73;;;;;;;12.51;95.69;101766.94;5073351;28;20433;-69
2021/08/25 05:52:53;;;;;;;1.90;1.37;;;;;;;12.67;94.62;101772.25;5073101;28;20447;-69
2021/08/25 05:55:20;;;;;;;2.13;1.70;;;;;;;12.71;94.14;101767.88;5072401;28;20864;-69
2021/08/25 05:57:46;;;;;;;1.80;1.20;;;;;;;12.80;92.58;101764.25;5072624;28;20442;-69
2021/08/25 06:00:14;;;;;;;4.20;1.93;;;;;;;12.81;91.40;101752.28;5072998;28;20510;-70
2021/08/25 06:02:40;;;;;;;3.83;2.27;;;;;;;12.83;91.16;101755.50;5072680;28;20952;-70
2021/08/25 06:05:09;;;;;;;3.13;1.33;;;;;;;12.87;90.56;101759.25;5072198;28;20481;-69
2021/08/25 06:07:36;;;;;;;2.80;2.00;;;;;;;12.85;91.72;101761.47;5072347;28;20460;-70
2021/08/25 06:10:04;;;;;;;1.97;1.20;;;;;;;12.88;93.04;101760.91;5076074;28;20430;-70
2021/08/25 06:12:30;;;;;;;1.47;1.37;;;;;;;13.02;93.57;101761.03;5076844;28;20448;-70
2021/08/25 06:14:56;;;;;;;2.20;1.60;;;;;;;13.02;92.94;101763.75;5076667;28;20832;-70
2021/08/25 06:17:23;;;;;;;3.63;1.80;;;;;;;13.08;93.31;101765.31;5076203;28;20454;-70
2021/08/25 06:19:49;;;;;;;4.07;1.83;;;;;;;13.25;93.08;101764.09;5076812;28;20484;-70
2021/08/25 06:22:18;;;;;;;2.30;1.70;;;;;;;13.40;92.55;101757.63;5077763;28;20441;-69
2021/08/25 06:24:45;;;;;;;3.50;1.33;;;;;;;13.49;91.47;101758.59;5076928;28;20468;-72
2021/08/25 06:27:11;;;;;;;2.40;1.83;;;;;;;13.60;91.30;101757.38;5075808;28;20459;-72
2021/08/25 06:29:38;;;;;;;3.10;1.80;;;;;;;13.68;90.71;101748.56;5076086;28;20441;-71
2021/08/25 06:32:07;;;;;;;5.83;2.07;;;;;;;13.79;90.94;101747.31;5076547;28;20484;-71
2021/08/25 06:34:33;;;;;;;3.70;1.70;;;;;;;13.81;89.88;101747.84;5076640;28;20476;-71
2021/08/25 06:37:00;;;;;;;4.47;1.80;;;;;;;13.86;89.48;101736.88;5075543;28;20498;-71
2021/08/25 06:39:28;;;;;;;3.83;2.13;;;;;;;14.03;89.42;101736.34;5075308;28;20472;-71
2021/08/25 06:41:54;;;;;;;4.63;2.10;;;;;;;14.14;88.71;101739.72;5075767;28;20440;-71
2021/08/25 06:44:20;;;;;;;4.33;2.50;;;;;;;14.26;87.94;101742.00;5082420;28;21024;-71
2021/08/25 06:46:47;;;;;;;3.40;1.70;;;;;;;14.37;87.53;101740.72;5075373;28;20441;-72
2021/08/25 06:49:13;;;;;;;4.90;1.70;;;;;;;14.46;87.20;101738.91;5076132;28;20444;-72
2021/08/25 06:51:40;;;;;;;2.97;1.80;;;;;;;14.60;87.24;101737.06;5076100;28;20445;-72
2021/08/25 06:54:06;;;;;;;5.60;2.07;;;;;;;14.61;86.15;101738.69;5076067;28;20461;-72
2021/08/25 06:56:34;;;;;;;5.67;2.03;;;;;;;14.75;85.30;101730.53;5075217;28;20453;-72
2021/08/25 06:59:00;;;;;;;4.23;1.63;;;;;;;14.88;85.27;101729.75;5075898;28;20441;-71
2021/08/25 07:01:27;;;;;;;4.80;1.63;;;;;;;15.04;83.40;101721.25;5075706;28;20456;-70
2021/08/25 07:03:53;;;;;;;5.63;1.60;;;;;;;15.20;83.26;101724.50;5075841;28;20468;-73
2021/08/25 07:06:20;;;;;;;3.43;2.00;;;;;;;15.25;82.62;101711.53;5075005;28;20793;-72
2021/08/25 07:08:46;;;;;;;9.57;3.17;;;;;;;15.34;81.71;101719.84;5075485;28;20869;-73
2021/08/25 07:11:13;;;;;;;3.83;1.93;;;;;;;15.52;82.25;101723.53;5075842;28;20445;-73
2021/08/25 07:13:41;;;;;;;4.30;1.70;;;;;;;15.52;81.70;101716.16;5075664;28;20460;-73
2021/08/25 07:16:09;;;;;;;5.40;1.57;;;;;;;15.62;80.63;101710.47;5074741;28;20437;-70
2021/08/25 07:18:35;;;;;;;11.77;1.90;;;;;;;15.62;80.96;101709.66;5075259;28;20464;-69
2021/08/25 07:21:03;;;;;;;3.33;1.80;;;;;;;15.75;81.22;101699.84;5073307;28;20488;-70
2021/08/25 07:23:30;;;;;;;2.10;1.43;;;;;;;15.76;80.28;101701.44;5075452;28;20437;-69
2021/08/25 07:25:56;;;;;;;5.77;1.90;;;;;;;15.71;79.92;101693.38;5074614;28;20445;-68
2021/08/25 07:28:23;;;;;;;2.60;1.73;;;;;;;15.81;80.27;101691.25;5075406;28;20812;-68
2021/08/25 07:30:51;;;;;;;2.40;1.13;;;;;;;15.88;79.29;101688.06;5075256;28;20437;-68
2021/08/25 07:33:19;;;;;;;2.70;1.20;;;;;;;15.87;79.04;101684.53;5075208;28;20437;-68
2021/08/25 07:35:48;;;;;;;3.63;1.63;;;;;;;15.87;78.63;101686.44;5074417;28;20526;-68
2021/08/25 07:38:15;;;;;;;8.73;1.43;;;;;;;15.84;78.64;101685.13;5075238;28;20495;-73
2021/08/25 07:40:42;;;;;;;3.57;1.40;;;;;;;15.87;78.95;101679.06;5075155;28;20484;-72
2021/08/25 07:43:08;;;;;;;3.47;1.50;;;;;;;15.98;78.40;101674.16;5075229;28;20444;-72
2021/08/25 07:45:36;;;;;;;3.00;1.33;;;;;;;16.04;76.73;101666.66;5074026;28;20469;-72
2021/08/25 07:48:04;;;;;;;2.70;1.60;;;;;;;16.11;76.61;101667.84;5074927;28;20447;-72
2021/08/25 07:50:31;;;;;;;4.30;1.40;;;;;;;16.32;76.82;101668.09;5075117;28;20472;-72
2021/08/25 07:52:57;;;;;;;2.00;1.50;;;;;;;16.49;74.94;101677.53;5074727;28;20472;-72
2021/08/25 07:55:24;;;;;;;1.87;1.07;;;;;;;16.57;74.60;101671.28;5074414;28;20825;-72
2021/08/25 07:57:50;;;;;;;5.20;1.60;;;;;;;16.75;74.80;101678.47;5074388;28;20471;-72
2021/08/25 08:00:17;;;;;;;2.83;1.10;;;;;;;16.82;72.97;101673.38;5074883;28;20481;-72
2021/08/25 08:02:44;;;;;;;2.20;1.57;;;;;;;16.88;73.65;101661.16;5074893;28;20451;-72
2021/08/25 08:05:12;;;;;;;3.77;1.90;;;;;;;16.94;72.23;101661.78;5073976;28;20538;-72
2021/08/25 08:07:39;;;;;;;3.80;1.80;;;;;;;17.03;72.46;101659.09;5074620;28;20448;-72
2021/08/25 08:10:07;;;;;;;2.23;1.20;;;;;;;17.15;72.61;101651.88;5074056;28;20713;-72
2021/08/25 08:12:33;;;;;;;2.50;1.33;;;;;;;17.28;72.02;101643.84;5074149;28;20452;-72
2021/08/25 08:15:00;;;;;;;6.50;1.70;;;;;;;17.29;72.08;101635.31;5074328;28;20465;-72
2021/08/25 08:17:26;;;;;;;5.43;1.50;;;;;;;17.35;72.26;101638.69;5073802;28;20445;-72
2021/08/25 08:19:55;;;;;;;2.50;1.37;;;;;;;17.48;72.73;101634.97;5074412;28;20484;-72
2021/08/25 08:22:23;;;;;;;2.63;1.27;;;;;;;17.67;73.24;101629.19;5074458;28;20484;-72
2021/08/25 08:24:50;;;;;;;3.50;1.70;;;;;;;17.86;71.04;101631.63;5074255;28;20506;-72
2021/08/25 08:27:16;;;;;;;2.13;1.23;;;;;;;17.81;68.57;101629.84;5073067;28;20444;-72
2021/08/25 08:29:43;;;;;;;5.33;1.87;;;;;;;17.85;68.87;101630.81;5074299;28;20441;-72
2021/08/25 08:32:09;;;;;;;3.70;1.43;;;;;;;18.06;68.76;101630.97;5074210;28;20445;-72
2021/08/25 08:34:36;;;;;;;3.50;1.23;;;;;;;18.16;68.12;101638.03;5074117;28;20461;-72
2021/08/25 08:37:03;;;;;;;5.47;2.00;;;;;;;18.23;67.36;101627.34;5073274;28;20536;-72
2021/08/25 08:39:31;;;;;;;3.20;1.57;;;;;;;18.22;66.52;101633.16;5080633;28;20449;-72
2021/08/25 08:41:58;;;;;;;3.47;1.80;;;;;;;18.31;67.00;101623.78;5074297;28;20437;-72
2021/08/25 08:44:26;;;;;;;2.90;1.30;;;;;;;18.32;65.84;101614.41;5073709;28;20469;-72
2021/08/25 08:46:53;;;;;;;4.57;1.30;;;;;;;18.48;66.42;101611.94;5073132;28;20445;-72
2021/08/25 08:49:20;;;;;;;3.80;2.00;;;;;;;18.70;67.79;101605.41;5073906;28;20442;-72
2021/08/25 08:51:46;;;;;;;5.80;1.90;;;;;;;18.76;65.10;101608.75;5073830;28;20445;-72
2021/08/25 08:54:13;;;;;;;5.27;2.17;;;;;;;18.88;66.23;101597.88;5073712;28;20581;-72
2021/08/25 08:56:41;;;;;;;1.87;1.23;;;;;;;19.04;67.22;101595.38;5072978;28;20475;-72
2021/08/25 08:59:07;;;;;;;3.30;1.87;;;;;;;19.16;65.69;101595.41;5073417;28;20949;-72
2021/08/25 09:01:35;;;;;;;3.60;1.30;;;;;;;19.22;63.94;101585.06;5073318;28;20994;-72
2021/08/25 09:04:01;;;;;;;3.10;1.50;;;;;;;19.18;63.21;101587.66;5073553;28;20551;-72
2021/08/25 09:06:44;;;;;;;2.07;1.40;;;;;;;19.22;64.02;101585.84;5072859;28;20448;-72
2021/08/25 09:09:11;;;;;;;3.13;1.50;;;;;;;19.17;63.02;101575.06;5073628;28;20510;-72
2021/08/25 09:11:50;;;;;;;3.93;1.67;;;;;;;19.19;62.74;101572.78;5073530;28;20434;-72
2021/08/25 09:14:16;;;;;;;3.70;1.33;;;;;;;19.14;63.56;101572.97;5073494;28;20493;-72
2021/08/25 09:16:43;;;;;;;3.90;1.47;;;;;;;19.20;63.79;101566.13;5072609;28;20449;-72
2021/08/25 09:19:10;;;;;;;2.67;1.43;;;;;;;19.09;63.29;101562.19;5073435;28;20445;-72
2021/08/25 09:21:39;;;;;;;2.80;1.27;;;;;;;19.08;64.54;101566.06;5073276;28;20481;-72
2021/08/25 09:24:06;;;;;;;3.33;1.47;;;;;;;19.03;64.39;101558.03;5073029;28;20485;-72
2021/08/25 09:26:33;;;;;;;3.17;1.67;;;;;;;18.92;63.80;101554.09;5072486;28;20445;-72
2021/08/25 09:31:55;;;;;;;2.13;1.73;;;;;;;18.78;64.70;101548.84;5152397;27;20506;-72
2021/08/25 09:34:26;;;;;;;4.33;1.37;;;;;;;18.82;63.85;101536.88;5151881;27;20473;-73
2021/08/25 09:37:05;;;;;;;5.83;2.33;;;;;;;18.94;64.43;101538.06;5151474;27;20440;-73
2021/08/25 09:39:33;;;;;;;5.10;1.40;;;;;;;18.98;64.56;101528.03;5152194;27;20484;-73
2021/08/25 09:41:59;;;;;;;4.07;2.23;;;;;;;18.97;65.10;101535.47;5152123;27;20445;-73
2021/08/25 09:44:26;;;;;;;3.30;1.60;;;;;;;18.93;63.58;101534.53;5151684;27;20458;-73
2021/08/25 09:46:52;;;;;;;3.13;1.70;;;;;;;18.87;63.77;101527.63;5150916;27;20942;-72
2021/08/25 09:49:20;;;;;;;5.77;2.50;;;;;;;18.88;64.25;101519.06;5151899;27;20433;-73
2021/08/25 09:51:46;;;;;;;1.93;1.00;;;;;;;18.87;62.97;101528.44;5151873;27;20484;-72
2021/08/25 09:54:16;;;;;;;2.80;1.50;;;;;;;18.79;62.01;101512.81;5151559;27;21005;-73
2021/08/25 09:56:43;;;;;;;5.40;1.23;;;;;;;18.96;63.37;101511.91;5151031;27;20483;-73
2021/08/25 09:59:12;;;;;;;3.57;1.37;;;;;;;19.17;64.66;101509.16;5151772;27;20544;-72
2021/08/25 10:01:40;;;;;;;6.20;2.30;;;;;;;19.24;63.77;101514.88;5151817;27;20440;-73
2021/08/25 10:04:08;;;;;;;3.90;1.63;;;;;;;19.30;65.14;101509.97;5151662;27;20460;-73
2021/08/25 10:06:38;;;;;;;2.10;1.27;;;;;;;19.39;63.07;101503.28;5150804;27;20438;-73
2021/08/25 10:09:06;;;;;;;2.90;1.93;;;;;;;19.41;63.11;101505.69;5151629;27;20469;-74
2021/08/25 10:11:35;;;;;;;5.90;1.67;;;;;;;19.37;63.11;101494.56;5152773;27;20970;-73
2021/08/25 10:14:07;;;;;;;2.53;1.70;;;;;;;19.37;62.54;101491.81;5151502;27;20461;-73
2021/08/25 10:16:42;;;;;;;2.70;1.37;;;;;;;19.39;61.39;101488.75;5150621;27;20430;-73
2021/08/25 10:19:35;;;;;;;3.93;1.77;;;;;;;19.19;62.77;101481.34;5151114;27;20803;-73
2021/08/25 10:22:05;;;;;;;3.10;1.90;;;;;;;19.18;63.14;101469.53;5151407;27;20513;-73
2021/08/25 10:25:01;;;;;;;5.00;1.17;;;;;;;19.28;63.31;101463.63;5151134;27;20470;-73
2021/08/25 10:27:30;;;;;;;3.03;1.50;;;;;;;19.31;63.57;101453.91;5150980;27;20496;-73
2021/08/25 10:30:14;;;;;;;3.00;1.50;;;;;;;19.30;63.84;101453.13;5151488;27;20540;-76
2021/08/25 10:33:10;;;;;;;4.23;1.50;;;;;;;19.30;63.95;101441.28;5151774;27;20833;-73
2021/08/25 10:35:40;;;;;;;2.67;1.70;;;;;;;19.24;62.97;101434.41;5157540;27;20434;-74
2021/08/25 10:38:20;;;;;;;2.93;1.60;;;;;;;19.27;64.96;101431.81;5150985;27;20442;-73
2021/08/25 10:40:48;;;;;;;6.33;1.67;;;;;;;19.29;62.56;101431.44;5151195;27;20792;-73
2021/08/25 10:43:34;;;;;;;6.80;1.73;;;;;;;19.32;63.89;101415.09;5136504;27;20466;-74
2021/08/25 10:46:00;;;;;;;3.33;1.63;;;;;;;19.46;63.99;101409.28;5136844;27;20423;-74
2021/08/25 10:48:44;;;;;;;5.33;1.80;;;;;;;19.49;63.59;101410.56;5137585;27;20438;-73
2021/08/25 10:51:34;;;;;;;5.83;1.83;;;;;;;19.56;63.23;101395.09;5137355;27;20474;-73
2021/08/25 10:54:03;;;;;;;4.10;1.67;;;;;;;19.80;63.37;101388.84;5137469;27;20451;-74
2021/08/25 10:56:32;;;;;;;3.57;1.33;;;;;;;20.02;64.02;101378.53;5136773;27;20450;-73
2021/08/25 10:59:03;;;;;;;7.17;1.57;;;;;;;20.17;63.22;101369.56;5137432;27;20446;-73
2021/08/25 11:01:31;;;;;;;4.17;1.33;;;;;;;20.22;61.55;101371.25;5136983;27;20415;-73
2021/08/25 11:04:02;;;;;;;5.30;1.47;;;;;;;20.31;61.51;101363.66;5136752;27;20459;-73
2021/08/25 11:06:40;;;;;;;3.90;1.60;;;;;;;20.23;60.07;101351.69;5135782;27;20411;-73
2021/08/25 11:09:28;;;;;;;3.20;1.73;;;;;;;20.30;61.07;101338.09;5136595;27;20442;-73
2021/08/25 11:12:00;;;;;;;1.80;1.33;;;;;;;20.38;61.55;101339.13;5136647;27;20470;-73
2021/08/25 11:14:32;;;;;;;3.10;1.33;;;;;;;20.51;60.09;101339.91;5136531;27;20519;-73
2021/08/25 11:17:08;;;;;;;2.27;1.07;;;;;;;20.78;59.69;101335.56;5135481;27;20419;-73
2021/08/25 11:19:39;;;;;;;4.20;1.50;;;;;;;21.31;58.05;101325.94;5136634;27;20434;-74
2021/08/25 11:22:06;;;;;;;6.33;1.70;;;;;;;21.84;56.51;101325.63;5136684;27;20427;-74
2021/08/25 11:24:36;;;;;;;2.00;1.40;;;;;;;22.11;54.52;101315.56;5135999;27;20463;-74
2021/08/25 11:27:04;;;;;;;2.13;1.50;;;;;;;22.69;55.05;101312.81;5135513;27;20442;-73
2021/08/25 11:29:30;;;;;;;2.13;1.37;;;;;;;23.08;51.80;101296.97;5135549;27;20443;-74
2021/08/25 11:32:03;;;;;;;3.63;1.43;;;;;;;24.50;51.11;101299.44;5136172;27;20478;-73
2021/08/25 11:34:30;;;;;;;1.87;1.17;;;;;;;24.82;48.94;101291.44;5136305;27;20864;-73